sensor_id;sensor_type;location;lat;lon;timestamp;P1;durP1;ratioP1;P2;durP2;ratioP2
69126;SDS011;56688;50.234;19.292;2024-03-06T00:02:22;40.60;;;20.60;;
69126;SDS011;56688;50.234;19.292;2024-03-06T00:04:49;37.50;;;21.00;;
69126;SDS011;56688;50.234;19.292;2024-03-06T00:07:16;34.00;;;19.90;;
69126;SDS011;56688;50.234;19.292;2024-03-06T00:09:44;37.10;;;19.00;;
69126;SDS011;56688;50.234;19.292;2024-03-06T00:12:11;42.90;;;19.90;;
69126;SDS011;56688;50.234;19.292;2024-03-06T00:14:38;37.70;;;20.60;;
69126;SDS011;56688;50.234;19.292;2024-03-06T00:17:05;39.90;;;20.90;;
69126;SDS011;56688;50.234;19.292;2024-03-06T00:19:34;39.10;;;20.10;;
69126;SDS011;56688;50.234;19.292;2024-03-06T00:22:01;39.20;;;20.40;;
69126;SDS011;56688;50.234;19.292;2024-03-06T00:24:29;34.10;;;19.70;;
69126;SDS011;56688;50.234;19.292;2024-03-06T00:26:56;35.90;;;19.60;;
69126;SDS011;56688;50.234;19.292;2024-03-06T00:29:23;37.40;;;20.40;;
69126;SDS011;56688;50.234;19.292;2024-03-06T00:31:50;37.00;;;19.80;;
69126;SDS011;56688;50.234;19.292;2024-03-06T00:34:17;33.80;;;18.50;;
69126;SDS011;56688;50.234;19.292;2024-03-06T00:36:44;34.10;;;18.30;;
69126;SDS011;56688;50.234;19.292;2024-03-06T00:39:11;37.40;;;18.60;;
69126;SDS011;56688;50.234;19.292;2024-03-06T00:41:41;33.30;;;18.50;;
69126;SDS011;56688;50.234;19.292;2024-03-06T00:44:08;35.40;;;18.90;;
69126;SDS011;56688;50.234;19.292;2024-03-06T00:46:36;38.90;;;21.60;;
69126;SDS011;56688;50.234;19.292;2024-03-06T00:49:03;37.70;;;20.80;;
69126;SDS011;56688;50.234;19.292;2024-03-06T00:51:30;38.00;;;19.00;;
69126;SDS011;56688;50.234;19.292;2024-03-06T00:54:10;37.20;;;17.70;;
69126;SDS011;56688;50.234;19.292;2024-03-06T00:56:38;27.90;;;16.30;;
69126;SDS011;56688;50.234;19.292;2024-03-06T00:59:06;34.70;;;17.90;;
69126;SDS011;56688;50.234;19.292;2024-03-06T01:01:33;30.20;;;17.10;;
69126;SDS011;56688;50.234;19.292;2024-03-06T01:04:00;29.10;;;16.90;;
69126;SDS011;56688;50.234;19.292;2024-03-06T01:06:27;29.70;;;16.70;;
69126;SDS011;56688;50.234;19.292;2024-03-06T01:08:55;33.70;;;17.30;;
69126;SDS011;56688;50.234;19.292;2024-03-06T01:11:24;34.80;;;17.50;;
69126;SDS011;56688;50.234;19.292;2024-03-06T01:13:52;31.10;;;16.90;;
69126;SDS011;56688;50.234;19.292;2024-03-06T01:16:20;34.10;;;17.50;;
69126;SDS011;56688;50.234;19.292;2024-03-06T01:18:47;32.20;;;16.80;;
69126;SDS011;56688;50.234;19.292;2024-03-06T01:21:14;32.80;;;18.40;;
69126;SDS011;56688;50.234;19.292;2024-03-06T01:23:42;35.50;;;18.90;;
69126;SDS011;56688;50.234;19.292;2024-03-06T01:26:10;37.70;;;18.80;;
69126;SDS011;56688;50.234;19.292;2024-03-06T01:28:38;32.40;;;15.60;;
69126;SDS011;56688;50.234;19.292;2024-03-06T01:31:06;29.60;;;16.20;;
69126;SDS011;56688;50.234;19.292;2024-03-06T01:33:34;38.70;;;17.20;;
69126;SDS011;56688;50.234;19.292;2024-03-06T01:36:01;36.40;;;18.50;;
69126;SDS011;56688;50.234;19.292;2024-03-06T01:38:28;36.50;;;17.90;;
69126;SDS011;56688;50.234;19.292;2024-03-06T01:40:55;32.30;;;17.80;;
69126;SDS011;56688;50.234;19.292;2024-03-06T01:43:24;33.90;;;18.60;;
69126;SDS011;56688;50.234;19.292;2024-03-06T01:45:54;29.70;;;17.10;;
69126;SDS011;56688;50.234;19.292;2024-03-06T01:48:21;29.50;;;17.90;;
69126;SDS011;56688;50.234;19.292;2024-03-06T01:50:53;31.10;;;17.50;;
69126;SDS011;56688;50.234;19.292;2024-03-06T01:53:24;36.00;;;18.20;;
69126;SDS011;56688;50.234;19.292;2024-03-06T01:55:54;29.70;;;16.20;;
69126;SDS011;56688;50.234;19.292;2024-03-06T01:58:23;30.80;;;15.60;;
69126;SDS011;56688;50.234;19.292;2024-03-06T02:00:50;32.10;;;16.30;;
69126;SDS011;56688;50.234;19.292;2024-03-06T02:03:20;30.70;;;16.80;;
69126;SDS011;56688;50.234;19.292;2024-03-06T02:05:48;25.70;;;14.50;;
69126;SDS011;56688;50.234;19.292;2024-03-06T02:08:16;30.10;;;16.20;;
69126;SDS011;56688;50.234;19.292;2024-03-06T02:10:45;27.20;;;15.40;;
69126;SDS011;56688;50.234;19.292;2024-03-06T02:13:13;25.70;;;13.90;;
69126;SDS011;56688;50.234;19.292;2024-03-06T02:15:42;29.80;;;15.10;;
69126;SDS011;56688;50.234;19.292;2024-03-06T02:18:11;33.60;;;16.30;;
69126;SDS011;56688;50.234;19.292;2024-03-06T02:20:38;25.70;;;15.60;;
69126;SDS011;56688;50.234;19.292;2024-03-06T02:23:07;24.80;;;14.80;;
69126;SDS011;56688;50.234;19.292;2024-03-06T02:25:35;25.50;;;14.40;;
69126;SDS011;56688;50.234;19.292;2024-03-06T02:28:02;22.20;;;13.50;;
69126;SDS011;56688;50.234;19.292;2024-03-06T02:30:30;27.90;;;15.50;;
69126;SDS011;56688;50.234;19.292;2024-03-06T02:33:03;28.90;;;15.10;;
69126;SDS011;56688;50.234;19.292;2024-03-06T02:35:31;34.00;;;14.50;;
69126;SDS011;56688;50.234;19.292;2024-03-06T02:37:59;26.50;;;14.30;;
69126;SDS011;56688;50.234;19.292;2024-03-06T02:40:26;23.00;;;13.20;;
69126;SDS011;56688;50.234;19.292;2024-03-06T02:42:53;28.20;;;15.40;;
69126;SDS011;56688;50.234;19.292;2024-03-06T02:45:20;29.70;;;15.20;;
69126;SDS011;56688;50.234;19.292;2024-03-06T02:47:47;28.10;;;14.70;;
69126;SDS011;56688;50.234;19.292;2024-03-06T02:50:15;27.60;;;14.70;;
69126;SDS011;56688;50.234;19.292;2024-03-06T02:52:42;22.70;;;14.20;;
69126;SDS011;56688;50.234;19.292;2024-03-06T02:55:09;31.60;;;14.40;;
69126;SDS011;56688;50.234;19.292;2024-03-06T02:57:36;27.00;;;14.10;;
69126;SDS011;56688;50.234;19.292;2024-03-06T03:00:03;24.90;;;13.40;;
69126;SDS011;56688;50.234;19.292;2024-03-06T03:02:31;24.30;;;13.20;;
69126;SDS011;56688;50.234;19.292;2024-03-06T03:04:58;24.20;;;13.50;;
69126;SDS011;56688;50.234;19.292;2024-03-06T03:07:25;24.70;;;13.10;;
69126;SDS011;56688;50.234;19.292;2024-03-06T03:09:52;25.40;;;14.80;;
69126;SDS011;56688;50.234;19.292;2024-03-06T03:12:19;32.10;;;16.10;;
69126;SDS011;56688;50.234;19.292;2024-03-06T03:14:46;24.90;;;13.40;;
69126;SDS011;56688;50.234;19.292;2024-03-06T03:17:13;28.40;;;14.40;;
69126;SDS011;56688;50.234;19.292;2024-03-06T03:19:42;28.40;;;14.50;;
69126;SDS011;56688;50.234;19.292;2024-03-06T03:22:09;27.50;;;14.70;;
69126;SDS011;56688;50.234;19.292;2024-03-06T03:24:37;23.30;;;13.50;;
69126;SDS011;56688;50.234;19.292;2024-03-06T03:27:04;27.20;;;14.10;;
69126;SDS011;56688;50.234;19.292;2024-03-06T03:29:31;21.70;;;12.40;;
69126;SDS011;56688;50.234;19.292;2024-03-06T03:31:58;24.60;;;13.20;;
69126;SDS011;56688;50.234;19.292;2024-03-06T03:34:25;21.80;;;13.60;;
69126;SDS011;56688;50.234;19.292;2024-03-06T03:36:52;27.20;;;14.60;;
69126;SDS011;56688;50.234;19.292;2024-03-06T03:39:19;28.10;;;14.80;;
69126;SDS011;56688;50.234;19.292;2024-03-06T03:41:48;26.90;;;14.90;;
69126;SDS011;56688;50.234;19.292;2024-03-06T03:44:16;28.80;;;16.00;;
69126;SDS011;56688;50.234;19.292;2024-03-06T03:46:45;28.60;;;16.30;;
69126;SDS011;56688;50.234;19.292;2024-03-06T03:49:13;33.20;;;16.10;;
69126;SDS011;56688;50.234;19.292;2024-03-06T03:51:40;33.10;;;16.40;;
69126;SDS011;56688;50.234;19.292;2024-03-06T03:54:07;35.90;;;17.20;;
69126;SDS011;56688;50.234;19.292;2024-03-06T03:56:34;29.00;;;16.10;;
69126;SDS011;56688;50.234;19.292;2024-03-06T03:59:01;28.70;;;16.20;;
69126;SDS011;56688;50.234;19.292;2024-03-06T04:01:29;35.90;;;17.10;;
69126;SDS011;56688;50.234;19.292;2024-03-06T04:03:57;40.30;;;19.10;;
69126;SDS011;56688;50.234;19.292;2024-03-06T04:06:24;46.90;;;19.90;;
69126;SDS011;56688;50.234;19.292;2024-03-06T04:08:51;42.90;;;20.20;;
69126;SDS011;56688;50.234;19.292;2024-03-06T04:11:18;44.00;;;20.80;;
69126;SDS011;56688;50.234;19.292;2024-03-06T04:13:46;43.90;;;21.00;;
69126;SDS011;56688;50.234;19.292;2024-03-06T04:16:16;47.20;;;21.10;;
69126;SDS011;56688;50.234;19.292;2024-03-06T04:18:46;48.80;;;21.20;;
69126;SDS011;56688;50.234;19.292;2024-03-06T04:21:13;50.10;;;22.10;;
69126;SDS011;56688;50.234;19.292;2024-03-06T04:23:43;49.30;;;22.00;;
69126;SDS011;56688;50.234;19.292;2024-03-06T04:26:11;48.70;;;21.80;;
69126;SDS011;56688;50.234;19.292;2024-03-06T04:28:38;51.80;;;22.20;;
69126;SDS011;56688;50.234;19.292;2024-03-06T04:31:06;46.50;;;20.30;;
69126;SDS011;56688;50.234;19.292;2024-03-06T04:33:33;38.70;;;18.40;;
69126;SDS011;56688;50.234;19.292;2024-03-06T04:36:01;37.50;;;17.70;;
69126;SDS011;56688;50.234;19.292;2024-03-06T04:38:29;24.50;;;13.50;;
69126;SDS011;56688;50.234;19.292;2024-03-06T04:40:56;24.70;;;13.40;;
69126;SDS011;56688;50.234;19.292;2024-03-06T04:43:23;24.50;;;14.10;;
69126;SDS011;56688;50.234;19.292;2024-03-06T04:45:50;32.80;;;14.20;;
69126;SDS011;56688;50.234;19.292;2024-03-06T04:48:18;26.00;;;13.90;;
69126;SDS011;56688;50.234;19.292;2024-03-06T04:50:45;24.30;;;13.10;;
69126;SDS011;56688;50.234;19.292;2024-03-06T04:53:12;22.60;;;13.30;;
69126;SDS011;56688;50.234;19.292;2024-03-06T04:55:39;24.90;;;13.90;;
69126;SDS011;56688;50.234;19.292;2024-03-06T04:58:06;23.70;;;13.60;;
69126;SDS011;56688;50.234;19.292;2024-03-06T05:00:33;25.20;;;14.30;;
69126;SDS011;56688;50.234;19.292;2024-03-06T05:03:00;25.40;;;14.40;;
69126;SDS011;56688;50.234;19.292;2024-03-06T05:05:45;28.30;;;14.40;;
69126;SDS011;56688;50.234;19.292;2024-03-06T05:08:29;24.90;;;13.30;;
69126;SDS011;56688;50.234;19.292;2024-03-06T05:11:14;26.80;;;13.70;;
69126;SDS011;56688;50.234;19.292;2024-03-06T05:13:59;27.00;;;14.70;;
69126;SDS011;56688;50.234;19.292;2024-03-06T05:16:44;27.20;;;13.30;;
69126;SDS011;56688;50.234;19.292;2024-03-06T05:19:28;24.50;;;13.80;;
69126;SDS011;56688;50.234;19.292;2024-03-06T05:22:16;24.70;;;13.10;;
69126;SDS011;56688;50.234;19.292;2024-03-06T05:25:01;28.40;;;14.30;;
69126;SDS011;56688;50.234;19.292;2024-03-06T05:27:46;25.20;;;12.80;;
69126;SDS011;56688;50.234;19.292;2024-03-06T05:30:30;24.70;;;12.70;;
69126;SDS011;56688;50.234;19.292;2024-03-06T05:33:15;24.80;;;13.50;;
69126;SDS011;56688;50.234;19.292;2024-03-06T05:36:00;23.90;;;13.80;;
69126;SDS011;56688;50.234;19.292;2024-03-06T05:41:29;27.00;;;13.80;;
69126;SDS011;56688;50.234;19.292;2024-03-06T05:44:15;29.00;;;14.00;;
69126;SDS011;56688;50.234;19.292;2024-03-06T05:46:59;30.20;;;14.40;;
69126;SDS011;56688;50.234;19.292;2024-03-06T05:49:45;29.30;;;14.90;;
69126;SDS011;56688;50.234;19.292;2024-03-06T05:52:30;29.30;;;14.70;;
69126;SDS011;56688;50.234;19.292;2024-03-06T05:55:16;25.90;;;13.60;;
69126;SDS011;56688;50.234;19.292;2024-03-06T05:58:00;27.60;;;14.40;;
69126;SDS011;56688;50.234;19.292;2024-03-06T06:00:40;28.50;;;14.70;;
69126;SDS011;56688;50.234;19.292;2024-03-06T06:03:08;30.60;;;14.50;;
69126;SDS011;56688;50.234;19.292;2024-03-06T06:05:39;28.80;;;15.20;;
69126;SDS011;56688;50.234;19.292;2024-03-06T06:08:07;32.00;;;15.40;;
69126;SDS011;56688;50.234;19.292;2024-03-06T06:10:34;34.20;;;17.20;;
69126;SDS011;56688;50.234;19.292;2024-03-06T06:13:01;30.80;;;16.30;;
69126;SDS011;56688;50.234;19.292;2024-03-06T06:15:31;36.20;;;16.40;;
69126;SDS011;56688;50.234;19.292;2024-03-06T06:17:59;37.60;;;18.80;;
69126;SDS011;56688;50.234;19.292;2024-03-06T06:20:26;35.90;;;17.40;;
69126;SDS011;56688;50.234;19.292;2024-03-06T06:22:53;37.00;;;17.90;;
69126;SDS011;56688;50.234;19.292;2024-03-06T06:25:21;53.20;;;22.20;;
69126;SDS011;56688;50.234;19.292;2024-03-06T06:27:48;49.80;;;21.60;;
69126;SDS011;56688;50.234;19.292;2024-03-06T06:30:16;46.40;;;22.80;;
69126;SDS011;56688;50.234;19.292;2024-03-06T06:32:43;51.30;;;24.00;;
69126;SDS011;56688;50.234;19.292;2024-03-06T06:35:11;50.60;;;23.60;;
69126;SDS011;56688;50.234;19.292;2024-03-06T06:37:40;51.80;;;23.60;;
69126;SDS011;56688;50.234;19.292;2024-03-06T06:40:08;48.00;;;22.90;;
69126;SDS011;56688;50.234;19.292;2024-03-06T06:42:36;53.60;;;23.90;;
69126;SDS011;56688;50.234;19.292;2024-03-06T06:45:05;52.50;;;23.30;;
69126;SDS011;56688;50.234;19.292;2024-03-06T06:47:33;55.10;;;24.20;;
69126;SDS011;56688;50.234;19.292;2024-03-06T06:50:01;51.80;;;23.50;;
69126;SDS011;56688;50.234;19.292;2024-03-06T06:52:32;56.50;;;25.10;;
69126;SDS011;56688;50.234;19.292;2024-03-06T06:55:01;58.50;;;25.60;;
69126;SDS011;56688;50.234;19.292;2024-03-06T06:57:29;58.70;;;26.30;;
69126;SDS011;56688;50.234;19.292;2024-03-06T06:59:57;54.90;;;26.20;;
69126;SDS011;56688;50.234;19.292;2024-03-06T07:02:24;56.40;;;25.80;;
69126;SDS011;56688;50.234;19.292;2024-03-06T07:04:51;57.00;;;25.10;;
69126;SDS011;56688;50.234;19.292;2024-03-06T07:07:18;61.60;;;27.60;;
69126;SDS011;56688;50.234;19.292;2024-03-06T07:09:46;62.80;;;28.40;;
69126;SDS011;56688;50.234;19.292;2024-03-06T07:12:13;62.00;;;27.20;;
69126;SDS011;56688;50.234;19.292;2024-03-06T07:14:40;65.30;;;27.90;;
69126;SDS011;56688;50.234;19.292;2024-03-06T07:17:07;65.50;;;28.60;;
69126;SDS011;56688;50.234;19.292;2024-03-06T07:19:34;63.00;;;28.40;;
69126;SDS011;56688;50.234;19.292;2024-03-06T07:22:01;63.10;;;29.60;;
69126;SDS011;56688;50.234;19.292;2024-03-06T07:24:29;72.70;;;30.20;;
69126;SDS011;56688;50.234;19.292;2024-03-06T07:26:56;71.10;;;30.50;;
69126;SDS011;56688;50.234;19.292;2024-03-06T07:29:23;73.60;;;31.90;;
69126;SDS011;56688;50.234;19.292;2024-03-06T07:31:51;75.00;;;31.20;;
69126;SDS011;56688;50.234;19.292;2024-03-06T07:34:18;65.90;;;29.00;;
69126;SDS011;56688;50.234;19.292;2024-03-06T07:36:45;55.70;;;26.10;;
69126;SDS011;56688;50.234;19.292;2024-03-06T07:39:15;59.90;;;25.80;;
69126;SDS011;56688;50.234;19.292;2024-03-06T07:41:43;67.50;;;27.50;;
69126;SDS011;56688;50.234;19.292;2024-03-06T07:44:10;55.10;;;25.30;;
69126;SDS011;56688;50.234;19.292;2024-03-06T07:46:37;56.20;;;25.80;;
69126;SDS011;56688;50.234;19.292;2024-03-06T07:49:04;62.20;;;24.60;;
69126;SDS011;56688;50.234;19.292;2024-03-06T07:51:32;49.70;;;23.40;;
69126;SDS011;56688;50.234;19.292;2024-03-06T07:53:59;56.00;;;25.50;;
69126;SDS011;56688;50.234;19.292;2024-03-06T07:56:27;66.10;;;27.50;;
69126;SDS011;56688;50.234;19.292;2024-03-06T07:58:55;55.10;;;25.70;;
69126;SDS011;56688;50.234;19.292;2024-03-06T08:01:23;58.00;;;25.80;;
69126;SDS011;56688;50.234;19.292;2024-03-06T08:03:50;62.50;;;26.70;;
69126;SDS011;56688;50.234;19.292;2024-03-06T08:06:18;57.10;;;24.90;;
69126;SDS011;56688;50.234;19.292;2024-03-06T08:08:45;61.40;;;25.30;;
69126;SDS011;56688;50.234;19.292;2024-03-06T08:11:12;57.10;;;25.50;;
69126;SDS011;56688;50.234;19.292;2024-03-06T08:13:40;50.90;;;24.00;;
69126;SDS011;56688;50.234;19.292;2024-03-06T08:16:08;64.90;;;25.90;;
69126;SDS011;56688;50.234;19.292;2024-03-06T08:18:35;56.60;;;25.00;;
69126;SDS011;56688;50.234;19.292;2024-03-06T08:21:03;54.20;;;24.50;;
69126;SDS011;56688;50.234;19.292;2024-03-06T08:23:32;49.90;;;24.00;;
69126;SDS011;56688;50.234;19.292;2024-03-06T08:26:00;54.90;;;24.70;;
69126;SDS011;56688;50.234;19.292;2024-03-06T08:28:27;51.40;;;24.20;;
69126;SDS011;56688;50.234;19.292;2024-03-06T08:30:54;56.30;;;24.30;;
69126;SDS011;56688;50.234;19.292;2024-03-06T08:33:21;52.30;;;23.00;;
69126;SDS011;56688;50.234;19.292;2024-03-06T08:35:50;52.80;;;24.50;;
69126;SDS011;56688;50.234;19.292;2024-03-06T08:38:17;54.10;;;24.10;;
69126;SDS011;56688;50.234;19.292;2024-03-06T08:40:44;48.30;;;23.60;;
69126;SDS011;56688;50.234;19.292;2024-03-06T08:43:13;49.80;;;24.30;;
69126;SDS011;56688;50.234;19.292;2024-03-06T08:45:42;47.30;;;25.20;;
69126;SDS011;56688;50.234;19.292;2024-03-06T08:48:09;50.80;;;24.30;;
69126;SDS011;56688;50.234;19.292;2024-03-06T08:50:38;41.10;;;21.80;;
69126;SDS011;56688;50.234;19.292;2024-03-06T08:53:06;44.90;;;22.90;;
69126;SDS011;56688;50.234;19.292;2024-03-06T08:55:33;41.80;;;23.00;;
69126;SDS011;56688;50.234;19.292;2024-03-06T08:58:00;42.50;;;22.80;;
69126;SDS011;56688;50.234;19.292;2024-03-06T09:00:28;42.00;;;21.20;;
69126;SDS011;56688;50.234;19.292;2024-03-06T09:02:55;40.10;;;21.60;;
69126;SDS011;56688;50.234;19.292;2024-03-06T09:05:22;39.90;;;21.00;;
69126;SDS011;56688;50.234;19.292;2024-03-06T09:07:49;42.10;;;21.80;;
69126;SDS011;56688;50.234;19.292;2024-03-06T09:10:16;40.10;;;21.10;;
69126;SDS011;56688;50.234;19.292;2024-03-06T09:12:45;37.30;;;19.60;;
69126;SDS011;56688;50.234;19.292;2024-03-06T09:15:14;40.30;;;21.10;;
69126;SDS011;56688;50.234;19.292;2024-03-06T09:17:42;40.10;;;19.70;;
69126;SDS011;56688;50.234;19.292;2024-03-06T09:20:09;34.10;;;18.80;;
69126;SDS011;56688;50.234;19.292;2024-03-06T09:22:39;32.80;;;19.90;;
69126;SDS011;56688;50.234;19.292;2024-03-06T09:25:07;35.80;;;19.90;;
69126;SDS011;56688;50.234;19.292;2024-03-06T09:27:34;36.50;;;19.20;;
69126;SDS011;56688;50.234;19.292;2024-03-06T09:30:02;38.50;;;21.10;;
69126;SDS011;56688;50.234;19.292;2024-03-06T09:32:30;35.00;;;19.80;;
69126;SDS011;56688;50.234;19.292;2024-03-06T09:34:58;35.40;;;19.10;;
69126;SDS011;56688;50.234;19.292;2024-03-06T09:37:26;34.70;;;19.10;;
69126;SDS011;56688;50.234;19.292;2024-03-06T09:39:55;32.60;;;18.50;;
69126;SDS011;56688;50.234;19.292;2024-03-06T09:42:23;31.60;;;18.20;;
69126;SDS011;56688;50.234;19.292;2024-03-06T09:44:51;30.20;;;17.10;;
69126;SDS011;56688;50.234;19.292;2024-03-06T09:47:21;31.00;;;17.50;;
69126;SDS011;56688;50.234;19.292;2024-03-06T09:49:52;28.10;;;16.30;;
69126;SDS011;56688;50.234;19.292;2024-03-06T09:52:21;27.20;;;16.70;;
69126;SDS011;56688;50.234;19.292;2024-03-06T09:54:53;32.40;;;17.30;;
69126;SDS011;56688;50.234;19.292;2024-03-06T09:57:21;30.30;;;16.80;;
69126;SDS011;56688;50.234;19.292;2024-03-06T09:59:48;30.30;;;18.50;;
69126;SDS011;56688;50.234;19.292;2024-03-06T10:05:20;31.60;;;18.90;;
69126;SDS011;56688;50.234;19.292;2024-03-06T10:07:48;33.80;;;19.70;;
69126;SDS011;56688;50.234;19.292;2024-03-06T10:10:18;34.50;;;18.90;;
69126;SDS011;56688;50.234;19.292;2024-03-06T10:12:46;29.80;;;18.30;;
69126;SDS011;56688;50.234;19.292;2024-03-06T10:15:15;34.80;;;19.30;;
69126;SDS011;56688;50.234;19.292;2024-03-06T10:17:43;38.70;;;20.60;;
69126;SDS011;56688;50.234;19.292;2024-03-06T10:20:17;32.60;;;19.60;;
69126;SDS011;56688;50.234;19.292;2024-03-06T10:22:48;31.50;;;19.90;;
69126;SDS011;56688;50.234;19.292;2024-03-06T10:25:22;30.80;;;17.30;;
69126;SDS011;56688;50.234;19.292;2024-03-06T10:30:39;37.70;;;20.40;;
69126;SDS011;56688;50.234;19.292;2024-03-06T10:33:09;41.30;;;20.90;;
69126;SDS011;56688;50.234;19.292;2024-03-06T10:35:39;41.90;;;20.60;;
69126;SDS011;56688;50.234;19.292;2024-03-06T10:38:08;37.30;;;20.50;;
69126;SDS011;56688;50.234;19.292;2024-03-06T10:40:39;36.80;;;20.40;;
69126;SDS011;56688;50.234;19.292;2024-03-06T10:43:08;37.80;;;20.40;;
69126;SDS011;56688;50.234;19.292;2024-03-06T10:48:23;36.90;;;21.40;;
69126;SDS011;56688;50.234;19.292;2024-03-06T10:50:51;38.10;;;21.40;;
69126;SDS011;56688;50.234;19.292;2024-03-06T10:53:19;38.50;;;20.60;;
69126;SDS011;56688;50.234;19.292;2024-03-06T10:55:50;33.00;;;19.80;;
69126;SDS011;56688;50.234;19.292;2024-03-06T10:58:19;41.30;;;20.50;;
69126;SDS011;56688;50.234;19.292;2024-03-06T11:00:47;36.50;;;20.40;;
69126;SDS011;56688;50.234;19.292;2024-03-06T11:03:15;36.90;;;20.60;;
69126;SDS011;56688;50.234;19.292;2024-03-06T11:05:43;37.70;;;22.00;;
69126;SDS011;56688;50.234;19.292;2024-03-06T11:08:14;41.80;;;21.50;;
69126;SDS011;56688;50.234;19.292;2024-03-06T11:10:44;38.20;;;21.10;;
69126;SDS011;56688;50.234;19.292;2024-03-06T11:15:47;39.40;;;21.00;;
69126;SDS011;56688;50.234;19.292;2024-03-06T11:23:30;35.50;;;19.50;;
69126;SDS011;56688;50.234;19.292;2024-03-06T11:26:01;30.40;;;17.70;;
69126;SDS011;56688;50.234;19.292;2024-03-06T11:28:31;36.30;;;18.80;;
69126;SDS011;56688;50.234;19.292;2024-03-06T11:38:47;39.10;;;20.50;;
69126;SDS011;56688;50.234;19.292;2024-03-06T11:41:14;30.70;;;17.00;;
69126;SDS011;56688;50.234;19.292;2024-03-06T11:43:42;33.00;;;18.00;;
69126;SDS011;56688;50.234;19.292;2024-03-06T11:46:09;32.00;;;17.90;;
69126;SDS011;56688;50.234;19.292;2024-03-06T11:48:37;29.10;;;16.50;;
69126;SDS011;56688;50.234;19.292;2024-03-06T11:51:05;28.80;;;16.90;;
69126;SDS011;56688;50.234;19.292;2024-03-06T11:53:33;30.00;;;17.40;;
69126;SDS011;56688;50.234;19.292;2024-03-06T11:56:05;30.70;;;16.80;;
69126;SDS011;56688;50.234;19.292;2024-03-06T11:58:35;28.60;;;16.60;;
69126;SDS011;56688;50.234;19.292;2024-03-06T12:01:02;25.60;;;15.60;;
69126;SDS011;56688;50.234;19.292;2024-03-06T12:03:29;26.30;;;14.60;;
69126;SDS011;56688;50.234;19.292;2024-03-06T12:05:57;22.90;;;14.40;;
69126;SDS011;56688;50.234;19.292;2024-03-06T12:08:25;24.80;;;14.10;;
69126;SDS011;56688;50.234;19.292;2024-03-06T12:10:53;28.80;;;16.80;;
69126;SDS011;56688;50.234;19.292;2024-03-06T12:13:22;30.20;;;17.40;;
69126;SDS011;56688;50.234;19.292;2024-03-06T12:15:51;28.20;;;16.30;;
69126;SDS011;56688;50.234;19.292;2024-03-06T12:18:18;25.70;;;15.60;;
69126;SDS011;56688;50.234;19.292;2024-03-06T12:20:45;27.60;;;16.70;;
69126;SDS011;56688;50.234;19.292;2024-03-06T12:23:20;27.30;;;16.50;;
69126;SDS011;56688;50.234;19.292;2024-03-06T12:25:49;27.90;;;16.80;;
69126;SDS011;56688;50.234;19.292;2024-03-06T12:28:31;32.00;;;18.20;;
69126;SDS011;56688;50.234;19.292;2024-03-06T12:30:58;30.60;;;17.10;;
69126;SDS011;56688;50.234;19.292;2024-03-06T12:33:29;26.80;;;16.10;;
69126;SDS011;56688;50.234;19.292;2024-03-06T12:36:01;35.40;;;18.70;;
69126;SDS011;56688;50.234;19.292;2024-03-06T12:38:31;35.00;;;18.60;;
69126;SDS011;56688;50.234;19.292;2024-03-06T12:40:59;31.20;;;17.80;;
69126;SDS011;56688;50.234;19.292;2024-03-06T12:43:27;33.20;;;18.90;;
69126;SDS011;56688;50.234;19.292;2024-03-06T12:45:55;31.30;;;17.90;;
69126;SDS011;56688;50.234;19.292;2024-03-06T12:48:25;31.50;;;18.30;;
69126;SDS011;56688;50.234;19.292;2024-03-06T12:50:52;34.00;;;19.00;;
69126;SDS011;56688;50.234;19.292;2024-03-06T12:53:21;33.10;;;18.00;;
69126;SDS011;56688;50.234;19.292;2024-03-06T12:55:48;35.50;;;17.60;;
69126;SDS011;56688;50.234;19.292;2024-03-06T12:58:16;30.40;;;18.20;;
69126;SDS011;56688;50.234;19.292;2024-03-06T13:00:43;32.40;;;18.20;;
69126;SDS011;56688;50.234;19.292;2024-03-06T13:03:10;29.00;;;17.60;;
69126;SDS011;56688;50.234;19.292;2024-03-06T13:05:37;33.20;;;18.40;;
69126;SDS011;56688;50.234;19.292;2024-03-06T13:08:05;36.60;;;20.40;;
69126;SDS011;56688;50.234;19.292;2024-03-06T13:10:32;39.20;;;21.00;;
69126;SDS011;56688;50.234;19.292;2024-03-06T13:12:59;38.20;;;20.90;;
69126;SDS011;56688;50.234;19.292;2024-03-06T13:15:26;38.30;;;21.10;;
69126;SDS011;56688;50.234;19.292;2024-03-06T13:17:53;39.30;;;20.70;;
69126;SDS011;56688;50.234;19.292;2024-03-06T13:20:20;41.00;;;22.40;;
69126;SDS011;56688;50.234;19.292;2024-03-06T13:22:47;35.40;;;21.60;;
69126;SDS011;56688;50.234;19.292;2024-03-06T13:25:14;36.70;;;21.00;;
69126;SDS011;56688;50.234;19.292;2024-03-06T13:27:41;35.70;;;20.40;;
69126;SDS011;56688;50.234;19.292;2024-03-06T13:30:09;37.00;;;20.40;;
69126;SDS011;56688;50.234;19.292;2024-03-06T13:32:36;44.70;;;21.00;;
69126;SDS011;56688;50.234;19.292;2024-03-06T13:35:03;36.70;;;21.50;;
69126;SDS011;56688;50.234;19.292;2024-03-06T13:37:33;34.90;;;20.10;;
69126;SDS011;56688;50.234;19.292;2024-03-06T13:40:01;39.30;;;20.80;;
69126;SDS011;56688;50.234;19.292;2024-03-06T13:42:29;37.30;;;21.10;;
69126;SDS011;56688;50.234;19.292;2024-03-06T13:44:56;35.70;;;21.50;;
69126;SDS011;56688;50.234;19.292;2024-03-06T13:47:23;44.40;;;23.60;;
69126;SDS011;56688;50.234;19.292;2024-03-06T13:49:50;38.20;;;21.80;;
69126;SDS011;56688;50.234;19.292;2024-03-06T13:52:18;33.10;;;18.90;;
69126;SDS011;56688;50.234;19.292;2024-03-06T13:54:47;36.50;;;20.40;;
69126;SDS011;56688;50.234;19.292;2024-03-06T13:57:15;33.40;;;18.50;;
69126;SDS011;56688;50.234;19.292;2024-03-06T13:59:42;35.10;;;18.30;;
69126;SDS011;56688;50.234;19.292;2024-03-06T14:02:09;33.00;;;19.10;;
69126;SDS011;56688;50.234;19.292;2024-03-06T14:04:36;33.50;;;17.50;;
69126;SDS011;56688;50.234;19.292;2024-03-06T14:07:04;34.30;;;17.80;;
69126;SDS011;56688;50.234;19.292;2024-03-06T14:09:31;32.40;;;17.50;;
69126;SDS011;56688;50.234;19.292;2024-03-06T14:11:58;33.50;;;18.20;;
69126;SDS011;56688;50.234;19.292;2024-03-06T14:14:25;30.00;;;16.90;;
69126;SDS011;56688;50.234;19.292;2024-03-06T14:16:53;35.10;;;17.50;;
69126;SDS011;56688;50.234;19.292;2024-03-06T14:19:20;36.20;;;18.90;;
69126;SDS011;56688;50.234;19.292;2024-03-06T14:21:48;33.00;;;17.60;;
69126;SDS011;56688;50.234;19.292;2024-03-06T14:24:16;33.10;;;16.20;;
69126;SDS011;56688;50.234;19.292;2024-03-06T14:26:43;29.50;;;16.70;;
69126;SDS011;56688;50.234;19.292;2024-03-06T14:29:11;37.10;;;17.50;;
69126;SDS011;56688;50.234;19.292;2024-03-06T14:31:38;33.80;;;17.50;;
69126;SDS011;56688;50.234;19.292;2024-03-06T14:34:05;35.50;;;17.70;;
69126;SDS011;56688;50.234;19.292;2024-03-06T14:36:33;33.10;;;17.60;;
69126;SDS011;56688;50.234;19.292;2024-03-06T14:39:01;33.80;;;16.60;;
69126;SDS011;56688;50.234;19.292;2024-03-06T14:41:29;31.00;;;17.70;;
69126;SDS011;56688;50.234;19.292;2024-03-06T14:43:57;35.00;;;17.10;;
69126;SDS011;56688;50.234;19.292;2024-03-06T14:46:23;38.20;;;20.20;;